sensor_id;sensor_type;location;lat;lon;timestamp;pressure;altitude;pressure_sealevel;temperature;humidity
71764;BME280;59602;52.142;5.408;2023-05-07T03:28:05;101736.97;;;14.75;93.27
71764;BME280;59602;52.142;5.408;2023-05-07T04:04:54;101748.69;;;14.65;93.43
71764;BME280;59602;52.142;5.408;2023-05-07T04:24:47;101758.44;;;14.66;93.60
71764;BME280;59602;52.142;5.408;2023-05-07T05:09:16;101785.13;;;14.83;92.16
71764;BME280;59602;52.142;5.408;2023-05-07T05:27:43;101789.84;;;14.90;91.67
71764;BME280;59602;52.142;5.408;2023-05-07T06:13:30;101831.78;;;15.15;92.38
71764;BME280;59602;52.142;5.408;2023-05-07T06:16:39;101823.97;;;15.18;92.66
71764;BME280;59602;52.142;5.408;2023-05-07T06:27:09;101838.03;;;15.12;92.88
71764;BME280;59602;52.142;5.408;2023-05-07T06:34:02;101835.34;;;15.23;92.47
71764;BME280;59602;52.142;5.408;2023-05-07T06:37:00;101833.38;;;15.24;92.45
71764;BME280;59602;52.142;5.408;2023-05-07T06:39:56;101838.06;;;15.27;93.37
71764;BME280;59602;52.142;5.408;2023-05-07T06:43:43;101840.06;;;15.30;93.42
71764;BME280;59602;52.142;5.408;2023-05-07T06:46:44;101839.28;;;15.29;93.17
71764;BME280;59602;52.142;5.408;2023-05-07T06:49:39;101836.91;;;15.31;93.20
71764;BME280;59602;52.142;5.408;2023-05-07T06:52:43;101839.66;;;15.35;93.17
71764;BME280;59602;52.142;5.408;2023-05-07T06:55:31;101838.50;;;15.36;92.68
71764;BME280;59602;52.142;5.408;2023-05-07T07:02:57;101843.63;;;15.48;92.83
71764;BME280;59602;52.142;5.408;2023-05-07T07:06:14;101840.88;;;15.55;92.65
71764;BME280;59602;52.142;5.408;2023-05-07T07:18:07;101840.94;;;15.77;92.16
71764;BME280;59602;52.142;5.408;2023-05-07T07:21:16;101841.72;;;15.85;92.14
71764;BME280;59602;52.142;5.408;2023-05-07T07:28:22;101836.66;;;15.97;91.95
71764;BME280;59602;52.142;5.408;2023-05-07T07:30:52;101840.56;;;16.00;91.82
71764;BME280;59602;52.142;5.408;2023-05-07T07:33:43;101836.25;;;16.03;91.13
71764;BME280;59602;52.142;5.408;2023-05-07T07:36:11;101838.59;;;16.04;90.55
71764;BME280;59602;52.142;5.408;2023-05-07T07:38:54;101852.34;;;16.08;90.79
71764;BME280;59602;52.142;5.408;2023-05-07T07:42:19;101845.25;;;16.14;90.51
71764;BME280;59602;52.142;5.408;2023-05-07T07:44:48;101844.84;;;16.23;90.96
71764;BME280;59602;52.142;5.408;2023-05-07T07:50:29;101845.22;;;16.53;89.22
71764;BME280;59602;52.142;5.408;2023-05-07T07:54:02;101858.91;;;16.64;88.91
71764;BME280;59602;52.142;5.408;2023-05-07T07:56:02;101853.00;;;16.69;88.26
71764;BME280;59602;52.142;5.408;2023-05-07T07:59:40;101862.41;;;16.75;88.00
71764;BME280;59602;52.142;5.408;2023-05-07T08:13:30;101863.59;;;16.85;87.31
71764;BME280;59602;52.142;5.408;2023-05-07T08:16:55;101864.78;;;16.84;87.21
71764;BME280;59602;52.142;5.408;2023-05-07T08:20:48;101869.06;;;16.85;87.31
71764;BME280;59602;52.142;5.408;2023-05-07T08:23:56;101871.06;;;16.85;87.58
71764;BME280;59602;52.142;5.408;2023-05-07T08:27:35;101869.88;;;16.82;88.37
71764;BME280;59602;52.142;5.408;2023-05-07T08:30:08;101868.72;;;16.79;88.14
71764;BME280;59602;52.142;5.408;2023-05-07T08:32:36;101862.41;;;16.75;88.94
71764;BME280;59602;52.142;5.408;2023-05-07T08:35:04;101864.38;;;16.75;89.18
71764;BME280;59602;52.142;5.408;2023-05-07T08:37:31;101870.28;;;16.77;89.64
71764;BME280;59602;52.142;5.408;2023-05-07T08:40:01;101871.47;;;16.79;89.42
71764;BME280;59602;52.142;5.408;2023-05-07T08:42:28;101870.28;;;16.80;89.65
71764;BME280;59602;52.142;5.408;2023-05-07T08:44:57;101868.69;;;16.83;88.94
71764;BME280;59602;52.142;5.408;2023-05-07T08:47:34;101870.66;;;16.86;88.89
71764;BME280;59602;52.142;5.408;2023-05-07T08:50:46;101872.59;;;16.89;88.92
71764;BME280;59602;52.142;5.408;2023-05-07T08:53:41;101865.53;;;16.92;88.66
71764;BME280;59602;52.142;5.408;2023-05-07T08:56:59;101876.91;;;16.97;88.69
71764;BME280;59602;52.142;5.408;2023-05-07T08:59:05;101875.31;;;17.00;89.18
71764;BME280;59602;52.142;5.408;2023-05-07T09:01:57;101870.19;;;17.06;90.06
71764;BME280;59602;52.142;5.408;2023-05-07T09:04:27;101876.09;;;17.04;90.04
71764;BME280;59602;52.142;5.408;2023-05-07T09:06:54;101878.06;;;17.04;89.62
71764;BME280;59602;52.142;5.408;2023-05-07T09:10:22;101873.34;;;17.04;89.18
71764;BME280;59602;52.142;5.408;2023-05-07T09:12:48;101865.50;;;17.02;88.79
71764;BME280;59602;52.142;5.408;2023-05-07T09:15:15;101869.44;;;17.01;88.85
71764;BME280;59602;52.142;5.408;2023-05-07T09:18:22;101869.81;;;17.04;89.09
71764;BME280;59602;52.142;5.408;2023-05-07T09:21:09;101871.34;;;17.12;89.34
71764;BME280;59602;52.142;5.408;2023-05-07T09:23:36;101878.00;;;17.14;88.52
71764;BME280;59602;52.142;5.408;2023-05-07T09:26:27;101876.41;;;17.20;89.26
71764;BME280;59602;52.142;5.408;2023-05-07T09:28:54;101887.00;;;17.22;88.29
71764;BME280;59602;52.142;5.408;2023-05-07T09:31:21;101878.75;;;17.22;87.54
71764;BME280;59602;52.142;5.408;2023-05-07T09:33:50;101876.00;;;17.22;87.92
71764;BME280;59602;52.142;5.408;2023-05-07T09:36:32;101886.63;;;17.24;88.90
71764;BME280;59602;52.142;5.408;2023-05-07T09:39:07;101886.63;;;17.24;88.88
71764;BME280;59602;52.142;5.408;2023-05-07T10:27:11;101902.78;;;17.84;84.20
71764;BME280;59602;52.142;5.408;2023-05-07T10:30:00;101907.47;;;17.91;83.98
71764;BME280;59602;52.142;5.408;2023-05-07T10:32:47;101893.72;;;17.91;82.96
71764;BME280;59602;52.142;5.408;2023-05-07T10:35:19;101896.41;;;17.98;83.80
71764;BME280;59602;52.142;5.408;2023-05-07T10:38:44;101897.09;;;18.10;83.74
71764;BME280;59602;52.142;5.408;2023-05-07T10:42:34;101893.88;;;18.22;83.46
71764;BME280;59602;52.142;5.408;2023-05-07T10:44:55;101896.88;;;18.38;83.10
71764;BME280;59602;52.142;5.408;2023-05-07T10:47:21;101890.81;;;18.54;82.63
71764;BME280;59602;52.142;5.408;2023-05-07T10:52:20;101891.00;;;18.74;81.19
71764;BME280;59602;52.142;5.408;2023-05-07T10:54:47;101907.28;;;18.99;81.16
71764;BME280;59602;52.142;5.408;2023-05-07T10:57:36;101901.66;;;19.06;79.26
71764;BME280;59602;52.142;5.408;2023-05-07T11:00:03;101907.56;;;19.08;79.32
71764;BME280;59602;52.142;5.408;2023-05-07T11:03:04;101901.66;;;19.06;79.71
71764;BME280;59602;52.142;5.408;2023-05-07T11:05:33;101893.06;;;19.04;78.89
71764;BME280;59602;52.142;5.408;2023-05-07T11:08:04;101900.97;;;19.02;78.40
71764;BME280;59602;52.142;5.408;2023-05-07T11:10:56;101899.78;;;19.00;78.29
71764;BME280;59602;52.142;5.408;2023-05-07T11:13:47;101903.72;;;19.02;78.68
71764;BME280;59602;52.142;5.408;2023-05-07T11:16:17;101904.53;;;18.99;78.49
71764;BME280;59602;52.142;5.408;2023-05-07T11:18:48;101901.72;;;19.03;78.69
71764;BME280;59602;52.142;5.408;2023-05-07T11:23:59;101906.91;;;18.97;78.84
71764;BME280;59602;52.142;5.408;2023-05-07T11:26:30;101904.53;;;18.99;79.55
71764;BME280;59602;52.142;5.408;2023-05-07T11:28:57;101910.78;;;19.03;79.38
71764;BME280;59602;52.142;5.408;2023-05-07T11:31:30;101914.75;;;19.02;77.96
71764;BME280;59602;52.142;5.408;2023-05-07T11:33:58;101907.25;;;19.03;79.58
71764;BME280;59602;52.142;5.408;2023-05-07T11:36:32;101916.53;;;19.16;80.59
71764;BME280;59602;52.142;5.408;2023-05-07T11:38:59;101914.03;;;19.29;79.71
71764;BME280;59602;52.142;5.408;2023-05-07T11:41:34;101913.81;;;19.43;77.42
71764;BME280;59602;52.142;5.408;2023-05-07T11:44:02;101906.66;;;19.49;78.35
71764;BME280;59602;52.142;5.408;2023-05-07T11:46:43;101908.94;;;19.55;78.88
71764;BME280;59602;52.142;5.408;2023-05-07T11:49:09;101913.91;;;19.67;78.13
71764;BME280;59602;52.142;5.408;2023-05-07T11:51:36;101908.69;;;19.76;77.44
71764;BME280;59602;52.142;5.408;2023-05-07T11:54:04;101906.69;;;19.77;76.29
71764;BME280;59602;52.142;5.408;2023-05-07T11:56:58;101909.38;;;19.80;76.76
71764;BME280;59602;52.142;5.408;2023-05-07T11:59:26;101908.97;;;19.82;77.35
71764;BME280;59602;52.142;5.408;2023-05-07T12:01:56;101913.56;;;19.92;77.06
71764;BME280;59602;52.142;5.408;2023-05-07T12:04:26;101912.97;;;20.04;76.31
71764;BME280;59602;52.142;5.408;2023-05-07T12:06:54;101912.44;;;20.13;76.17
71764;BME280;59602;52.142;5.408;2023-05-07T12:09:22;101912.84;;;20.11;75.05
71764;BME280;59602;52.142;5.408;2023-05-07T12:11:48;101914.38;;;20.16;75.41
71764;BME280;59602;52.142;5.408;2023-05-07T12:14:21;101910.41;;;20.17;75.55
71764;BME280;59602;52.142;5.408;2023-05-07T12:16:48;101910.75;;;20.19;75.38
71764;BME280;59602;52.142;5.408;2023-05-07T12:19:16;101914.00;;;20.38;74.83
71764;BME280;59602;52.142;5.408;2023-05-07T12:21:43;101907.97;;;20.43;74.12
71764;BME280;59602;52.142;5.408;2023-05-07T12:24:10;101915.94;;;20.41;73.57
71764;BME280;59602;52.142;5.408;2023-05-07T12:26:38;101913.75;;;20.52;73.94
71764;BME280;59602;52.142;5.408;2023-05-07T12:29:07;101897.47;;;20.58;73.82
71764;BME280;59602;52.142;5.408;2023-05-07T12:31:34;101904.38;;;20.69;73.58
71764;BME280;59602;52.142;5.408;2023-05-07T12:34:00;101902.97;;;20.81;74.41
71764;BME280;59602;52.142;5.408;2023-05-07T12:54:07;101907.78;;;21.17;71.18
71764;BME280;59602;52.142;5.408;2023-05-07T12:56:37;101900.84;;;21.09;68.94
71764;BME280;59602;52.142;5.408;2023-05-07T12:59:03;101907.50;;;20.91;69.63
71764;BME280;59602;52.142;5.408;2023-05-07T13:24:49;101911.19;;;20.85;68.37
71764;BME280;59602;52.142;5.408;2023-05-07T13:27:18;101905.88;;;20.94;68.28
71764;BME280;59602;52.142;5.408;2023-05-07T13:29:49;101916.66;;;20.88;69.50
71764;BME280;59602;52.142;5.408;2023-05-07T13:32:18;101913.69;;;20.79;69.09
71764;BME280;59602;52.142;5.408;2023-05-07T13:34:44;101911.69;;;20.80;70.11
71764;BME280;59602;52.142;5.408;2023-05-07T13:42:29;101901.31;;;20.64;69.97
71764;BME280;59602;52.142;5.408;2023-05-07T13:44:56;101906.91;;;20.60;69.77
71764;BME280;59602;52.142;5.408;2023-05-07T13:47:23;101903.06;;;20.54;69.31
71764;BME280;59602;52.142;5.408;2023-05-07T13:54:37;101909.31;;;20.58;69.13
71764;BME280;59602;52.142;5.408;2023-05-07T13:57:06;101908.66;;;20.50;69.05
71764;BME280;59602;52.142;5.408;2023-05-07T13:59:35;101912.59;;;20.49;70.38
71764;BME280;59602;52.142;5.408;2023-05-07T14:02:05;101911.91;;;20.45;70.30
71764;BME280;59602;52.142;5.408;2023-05-07T14:04:39;101915.44;;;20.46;70.37
71764;BME280;59602;52.142;5.408;2023-05-07T14:07:12;101921.69;;;20.50;71.31
71764;BME280;59602;52.142;5.408;2023-05-07T14:09:40;101913.75;;;20.52;70.96
71764;BME280;59602;52.142;5.408;2023-05-07T14:12:40;101917.44;;;20.45;69.97
71764;BME280;59602;52.142;5.408;2023-05-07T14:15:10;101917.78;;;20.47;69.40
71764;BME280;59602;52.142;5.408;2023-05-07T14:17:41;101918.63;;;20.44;69.54
71764;BME280;59602;52.142;5.408;2023-05-07T14:20:12;101919.38;;;20.45;70.83
71764;BME280;59602;52.142;5.408;2023-05-07T14:22:55;101913.94;;;20.41;70.01
71764;BME280;59602;52.142;5.408;2023-05-07T14:25:27;101911.22;;;20.38;70.08
71764;BME280;59602;52.142;5.408;2023-05-07T14:27:54;101912.09;;;20.35;70.09
71764;BME280;59602;52.142;5.408;2023-05-07T14:30:29;101920.38;;;20.35;70.11
71764;BME280;59602;52.142;5.408;2023-05-07T14:33:25;101916.84;;;20.34;70.22
71764;BME280;59602;52.142;5.408;2023-05-07T14:35:59;101927.06;;;20.33;70.42
71764;BME280;59602;52.142;5.408;2023-05-07T14:38:30;101929.16;;;20.29;70.37
71764;BME280;59602;52.142;5.408;2023-05-07T14:41:25;101934.19;;;20.35;71.22
71764;BME280;59602;52.142;5.408;2023-05-07T14:44:01;101936.88;;;20.38;71.69
71764;BME280;59602;52.142;5.408;2023-05-07T14:46:31;101935.44;;;20.30;71.09
71764;BME280;59602;52.142;5.408;2023-05-07T14:49:03;101939.56;;;20.18;71.49
71764;BME280;59602;52.142;5.408;2023-05-07T14:51:35;101936.91;;;20.11;70.65
71764;BME280;59602;52.142;5.408;2023-05-07T14:54:33;101946.81;;;20.08;69.20
71764;BME280;59602;52.142;5.408;2023-05-07T14:57:10;101941.47;;;19.98;69.89
71764;BME280;59602;52.142;5.408;2023-05-07T14:59:58;101939.53;;;19.95;70.21
71764;BME280;59602;52.142;5.408;2023-05-07T15:27:30;101957.41;;;19.86;71.74
71764;BME280;59602;52.142;5.408;2023-05-07T15:37:09;102008.22;;;19.24;76.98
71764;BME280;59602;52.142;5.408;2023-05-07T15:43:46;102015.53;;;18.58;79.31
71764;BME280;59602;52.142;5.408;2023-05-07T15:46:32;102020.47;;;18.25;80.65
71764;BME280;59602;52.142;5.408;2023-05-07T15:49:01;102019.84;;;18.00;81.40
71764;BME280;59602;52.142;5.408;2023-05-07T15:51:33;102017.97;;;17.82;82.29
71764;BME280;59602;52.142;5.408;2023-05-07T15:54:05;102018.38;;;17.74;84.07
71764;BME280;59602;52.142;5.408;2023-05-07T15:56:42;102018.81;;;17.65;83.03
71764;BME280;59602;52.142;5.408;2023-05-07T16:00:25;102009.81;;;17.50;82.80
71764;BME280;59602;52.142;5.408;2023-05-07T16:03:26;102015.75;;;17.38;82.26
71764;BME280;59602;52.142;5.408;2023-05-07T16:05:54;102021.69;;;17.33;82.89
71764;BME280;59602;52.142;5.408;2023-05-07T16:08:30;102022.44;;;17.30;83.58
71764;BME280;59602;52.142;5.408;2023-05-07T16:11:10;102020.47;;;17.30;83.68
71764;BME280;59602;52.142;5.408;2023-05-07T16:13:37;102025.63;;;17.28;82.95
71764;BME280;59602;52.142;5.408;2023-05-07T16:16:05;102029.56;;;17.24;84.14
71764;BME280;59602;52.142;5.408;2023-05-07T16:18:31;102030.34;;;17.13;84.15
71764;BME280;59602;52.142;5.408;2023-05-07T16:20:58;102024.88;;;17.02;85.60
71764;BME280;59602;52.142;5.408;2023-05-07T16:23:26;102026.44;;;16.96;85.87
71764;BME280;59602;52.142;5.408;2023-05-07T16:26:22;102025.28;;;16.97;86.25
71764;BME280;59602;52.142;5.408;2023-05-07T16:29:15;102044.91;;;16.99;87.10
71764;BME280;59602;52.142;5.408;2023-05-07T16:31:44;102050.38;;;17.03;87.05
71764;BME280;59602;52.142;5.408;2023-05-07T16:34:10;102053.50;;;17.05;86.34
71764;BME280;59602;52.142;5.408;2023-05-07T16:36:37;102051.19;;;17.04;86.40
71764;BME280;59602;52.142;5.408;2023-05-07T16:39:26;102045.69;;;17.04;85.73
71764;BME280;59602;52.142;5.408;2023-05-07T16:42:02;102043.72;;;17.00;86.40
71764;BME280;59602;52.142;5.408;2023-05-07T16:44:57;102031.16;;;16.99;87.15
71764;BME280;59602;52.142;5.408;2023-05-07T16:50:19;102039.78;;;16.98;88.44
71764;BME280;59602;52.142;5.408;2023-05-07T16:53:07;102045.69;;;17.00;88.50
71764;BME280;59602;52.142;5.408;2023-05-07T16:55:36;102044.91;;;16.99;88.42
71764;BME280;59602;52.142;5.408;2023-05-07T16:58:24;102039.38;;;17.03;88.45
71764;BME280;59602;52.142;5.408;2023-05-07T17:01:23;102033.09;;;17.02;88.81
71764;BME280;59602;52.142;5.408;2023-05-07T17:16:39;102012.91;;;17.63;89.08
71764;BME280;59602;52.142;5.408;2023-05-07T17:19:58;102007.03;;;17.64;89.21
71764;BME280;59602;52.142;5.408;2023-05-07T17:23:03;102018.81;;;17.69;88.63
71764;BME280;59602;52.142;5.408;2023-05-07T17:29:21;102014.47;;;17.71;88.96
71764;BME280;59602;52.142;5.408;2023-05-07T17:32:13;102019.19;;;17.71;88.79
71764;BME280;59602;52.142;5.408;2023-05-07T17:35:18;102015.19;;;17.79;88.59
71764;BME280;59602;52.142;5.408;2023-05-07T17:37:48;102018.75;;;17.79;88.28
71764;BME280;59602;52.142;5.408;2023-05-07T17:40:38;102028.59;;;17.73;87.12
71764;BME280;59602;52.142;5.408;2023-05-07T17:43:30;102027.06;;;17.69;87.64
71764;BME280;59602;52.142;5.408;2023-05-07T17:56:33;102056.47;;;17.79;88.26
71764;BME280;59602;52.142;5.408;2023-05-07T18:00:32;102054.13;;;17.74;88.40
71764;BME280;59602;52.142;5.408;2023-05-07T18:02:53;102056.09;;;17.73;89.14
71764;BME280;59602;52.142;5.408;2023-05-07T18:05:46;102056.88;;;17.74;88.88
71764;BME280;59602;52.142;5.408;2023-05-07T18:08:13;102058.47;;;17.71;88.10
71764;BME280;59602;52.142;5.408;2023-05-07T18:10:40;102056.91;;;17.67;88.39
71764;BME280;59602;52.142;5.408;2023-05-07T18:13:40;102056.50;;;17.68;89.12
71764;BME280;59602;52.142;5.408;2023-05-07T18:16:27;102059.28;;;17.64;88.73
71764;BME280;59602;52.142;5.408;2023-05-07T18:18:54;102068.34;;;17.58;88.54
71764;BME280;59602;52.142;5.408;2023-05-07T18:21:24;102071.50;;;17.53;88.46
71764;BME280;59602;52.142;5.408;2023-05-07T18:23:52;102071.13;;;17.51;88.08
71764;BME280;59602;52.142;5.408;2023-05-07T18:26:18;102067.59;;;17.43;88.27
71764;BME280;59602;52.142;5.408;2023-05-07T18:28:46;102065.63;;;17.40;88.77
71764;BME280;59602;52.142;5.408;2023-05-07T18:31:13;102066.81;;;17.39;89.23
71764;BME280;59602;52.142;5.408;2023-05-07T18:33:40;102066.06;;;17.35;88.67
71764;BME280;59602;52.142;5.408;2023-05-07T18:36:24;102066.44;;;17.33;88.71
71764;BME280;59602;52.142;5.408;2023-05-07T18:38:56;102073.91;;;17.29;88.19
71764;BME280;59602;52.142;5.408;2023-05-07T18:41:23;102080.59;;;17.25;88.58
71764;BME280;59602;52.142;5.408;2023-05-07T18:43:50;102083.75;;;17.19;89.09
71764;BME280;59602;52.142;5.408;2023-05-07T18:46:17;102081.38;;;17.14;89.61
71764;BME280;59602;52.142;5.408;2023-05-07T18:48:44;102076.69;;;17.11;89.47
71764;BME280;59602;52.142;5.408;2023-05-07T18:51:11;102076.28;;;17.09;89.18
71764;BME280;59602;52.142;5.408;2023-05-07T18:53:38;102088.06;;;17.06;89.47
71764;BME280;59602;52.142;5.408;2023-05-07T18:56:06;102092.41;;;17.04;89.37
71764;BME280;59602;52.142;5.408;2023-05-07T18:58:34;102089.66;;;17.00;88.18
71764;BME280;59602;52.142;5.408;2023-05-07T19:01:01;102088.47;;;16.97;88.14
71764;BME280;59602;52.142;5.408;2023-05-07T19:03:56;102096.69;;;16.94;87.78
71764;BME280;59602;52.142;5.408;2023-05-07T19:06:23;102095.53;;;16.91;88.63
71764;BME280;59602;52.142;5.408;2023-05-07T19:08:51;102086.09;;;16.85;89.19
71764;BME280;59602;52.142;5.408;2023-05-07T19:11:21;102084.94;;;16.83;89.52
71764;BME280;59602;52.142;5.408;2023-05-07T19:13:48;102095.50;;;16.77;89.60
71764;BME280;59602;52.142;5.408;2023-05-07T19:16:15;102085.28;;;16.70;88.91
71764;BME280;59602;52.142;5.408;2023-05-07T19:18:42;102082.91;;;16.65;89.98
71764;BME280;59602;52.142;5.408;2023-05-07T19:21:09;102087.66;;;16.61;89.59
71764;BME280;59602;52.142;5.408;2023-05-07T19:23:35;102091.53;;;16.56;89.66
71764;BME280;59602;52.142;5.408;2023-05-07T19:26:08;102089.19;;;16.51;89.65
71764;BME280;59602;52.142;5.408;2023-05-07T19:28:37;102098.97;;;16.49;89.66
71764;BME280;59602;52.142;5.408;2023-05-07T19:31:05;102097.41;;;16.44;89.65
71764;BME280;59602;52.142;5.408;2023-05-07T19:33:32;102096.22;;;16.38;89.88
71764;BME280;59602;52.142;5.408;2023-05-07T19:35:59;102107.56;;;16.36;90.28
71764;BME280;59602;52.142;5.408;2023-05-07T19:38:26;102109.13;;;16.34;90.26
71764;BME280;59602;52.142;5.408;2023-05-07T19:40:54;102107.56;;;16.29;89.44
71764;BME280;59602;52.142;5.408;2023-05-07T19:43:22;102115.00;;;16.25;89.57
71764;BME280;59602;52.142;5.408;2023-05-07T19:45:51;102116.97;;;16.21;89.65
71764;BME280;59602;52.142;5.408;2023-05-07T19:48:18;102113.00;;;16.18;90.21
71764;BME280;59602;52.142;5.408;2023-05-07T19:50:46;102123.22;;;16.14;90.47
71764;BME280;59602;52.142;5.408;2023-05-07T19:53:37;102128.28;;;16.12;90.59
71764;BME280;59602;52.142;5.408;2023-05-07T19:56:08;102131.78;;;16.09;90.42
71764;BME280;59602;52.142;5.408;2023-05-07T19:58:36;102136.09;;;16.07;90.68
71764;BME280;59602;52.142;5.408;2023-05-07T20:01:04;102134.13;;;16.04;90.64
71764;BME280;59602;52.142;5.408;2023-05-07T20:03:32;102135.28;;;15.99;90.44
71764;BME280;59602;52.142;5.408;2023-05-07T20:06:01;102135.66;;;15.97;90.89
71764;BME280;59602;52.142;5.408;2023-05-07T20:08:28;102133.69;;;15.94;90.70
71764;BME280;59602;52.142;5.408;2023-05-07T20:10:56;102138.00;;;15.92;90.65
71764;BME280;59602;52.142;5.408;2023-05-07T20:13:23;102141.88;;;15.87;90.28
71764;BME280;59602;52.142;5.408;2023-05-07T20:15:57;102139.13;;;15.84;90.09
71764;BME280;59602;52.142;5.408;2023-05-07T20:18:26;102147.31;;;15.80;90.14
71764;BME280;59602;52.142;5.408;2023-05-07T20:20:53;102154.38;;;15.77;90.48
71764;BME280;59602;52.142;5.408;2023-05-07T20:23:20;102153.59;;;15.77;90.32
71764;BME280;59602;52.142;5.408;2023-05-07T20:25:47;102151.22;;;15.75;90.25
71764;BME280;59602;52.142;5.408;2023-05-07T20:28:14;102151.22;;;15.72;90.37
71764;BME280;59602;52.142;5.408;2023-05-07T20:30:41;102154.66;;;15.69;90.33
71764;BME280;59602;52.142;5.408;2023-05-07T20:33:08;102158.19;;;15.66;90.18
71764;BME280;59602;52.142;5.408;2023-05-07T20:35:37;102157.75;;;15.60;89.78
71764;BME280;59602;52.142;5.408;2023-05-07T20:38:17;102156.13;;;15.52;90.08
71764;BME280;59602;52.142;5.408;2023-05-07T20:40:44;102167.03;;;15.45;90.44
71764;BME280;59602;52.142;5.408;2023-05-07T20:43:11;102165.09;;;15.45;90.46
71764;BME280;59602;52.142;5.408;2023-05-07T20:45:38;102157.25;;;15.44;90.34
71764;BME280;59602;52.142;5.408;2023-05-07T20:48:05;102162.31;;;15.42;90.29
71764;BME280;59602;52.142;5.408;2023-05-07T20:50:32;102158.81;;;15.41;90.50
71764;BME280;59602;52.142;5.408;2023-05-07T20:52:59;102164.25;;;15.38;90.02
71764;BME280;59602;52.142;5.408;2023-05-07T20:55:26;102161.09;;;15.32;89.70
71764;BME280;59602;52.142;5.408;2023-05-07T20:57:53;102159.09;;;15.29;90.18
71764;BME280;59602;52.142;5.408;2023-05-07T21:00:19;102157.53;;;15.28;90.41
71764;BME280;59602;52.142;5.408;2023-05-07T21:02:46;102169.25;;;15.28;90.45
71764;BME280;59602;52.142;5.408;2023-05-07T21:05:13;102168.44;;;15.24;90.81
71764;BME280;59602;52.142;5.408;2023-05-07T21:07:39;102173.50;;;15.22;90.63
71764;BME280;59602;52.142;5.408;2023-05-07T21:10:07;102161.34;;;15.20;90.90
71764;BME280;59602;52.142;5.408;2023-05-07T21:12:33;102159.41;;;15.20;91.23
71764;BME280;59602;52.142;5.408;2023-05-07T21:15:00;102165.28;;;15.19;91.22
71764;BME280;59602;52.142;5.408;2023-05-07T21:17:31;102166.06;;;15.19;90.98
71764;BME280;59602;52.142;5.408;2023-05-07T21:20:00;102171.91;;;15.14;90.62
71764;BME280;59602;52.142;5.408;2023-05-07T21:22:29;102180.84;;;15.11;90.38
71764;BME280;59602;52.142;5.408;2023-05-07T21:24:59;102179.66;;;15.08;90.54
71764;BME280;59602;52.142;5.408;2023-05-07T21:27:27;102185.50;;;15.07;90.43
71764;BME280;59602;52.142;5.408;2023-05-07T21:29:54;102186.69;;;15.06;90.53
71764;BME280;59602;52.142;5.408;2023-05-07T21:32:42;102187.44;;;15.03;90.50
71764;BME280;59602;52.142;5.408;2023-05-07T21:35:12;102183.88;;;14.99;90.48
71764;BME280;59602;52.142;5.408;2023-05-07T21:37:38;102180.72;;;14.97;90.77
71764;BME280;59602;52.142;5.408;2023-05-07T21:40:06;102190.50;;;14.98;90.85
71764;BME280;59602;52.142;5.408;2023-05-07T21:42:33;102186.22;;;14.97;90.40
71764;BME280;59602;52.142;5.408;2023-05-07T21:45:03;102181.09;;;14.95;90.64
71764;BME280;59602;52.142;5.408;2023-05-07T21:47:30;102183.41;;;14.93;90.58
71764;BME280;59602;52.142;5.408;2023-05-07T21:49:57;102182.19;;;14.87;90.05
71764;BME280;59602;52.142;5.408;2023-05-07T21:52:24;102190.00;;;14.85;90.71
71764;BME280;59602;52.142;5.408;2023-05-07T21:54:52;102187.63;;;14.83;90.60
71764;BME280;59602;52.142;5.408;2023-05-07T21:57:19;102191.53;;;14.82;90.50
71764;BME280;59602;52.142;5.408;2023-05-07T21:59:46;102188.75;;;14.79;90.68
71764;BME280;59602;52.142;5.408;2023-05-07T22:02:13;102193.06;;;14.80;91.03
71764;BME280;59602;52.142;5.408;2023-05-07T22:04:40;102194.25;;;14.79;90.82
71764;BME280;59602;52.142;5.408;2023-05-07T22:07:07;102193.03;;;14.76;90.82
71764;BME280;59602;52.142;5.408;2023-05-07T22:09:33;102188.72;;;14.75;90.92
71764;BME280;59602;52.142;5.408;2023-05-07T22:12:00;102203.59;;;14.78;91.19
71764;BME280;59602;52.142;5.408;2023-05-07T22:14:27;102198.88;;;14.74;91.28
71764;BME280;59602;52.142;5.408;2023-05-07T22:16:53;102203.94;;;14.72;91.34
71764;BME280;59602;52.142;5.408;2023-05-07T22:19:20;102208.28;;;14.73;91.67
71764;BME280;59602;52.142;5.408;2023-05-07T22:21:47;102210.19;;;14.73;91.59
71764;BME280;59602;52.142;5.408;2023-05-07T22:24:15;102212.53;;;14.71;91.26
71764;BME280;59602;52.142;5.408;2023-05-07T22:26:42;102207.81;;;14.68;91.21
71764;BME280;59602;52.142;5.408;2023-05-07T22:29:08;102201.09;;;14.62;90.87
71764;BME280;59602;52.142;5.408;2023-05-07T22:31:35;102207.31;;;14.59;91.09
71764;BME280;59602;52.142;5.408;2023-05-07T22:34:02;102209.63;;;14.57;91.18
71764;BME280;59602;52.142;5.408;2023-05-07T22:36:28;102217.06;;;14.56;91.21
71764;BME280;59602;52.142;5.408;2023-05-07T22:39:12;102214.69;;;14.55;91.32
71764;BME280;59602;52.142;5.408;2023-05-07T22:41:38;102218.22;;;14.55;91.31
71764;BME280;59602;52.142;5.408;2023-05-07T22:44:05;102211.94;;;14.55;91.56
71764;BME280;59602;52.142;5.408;2023-05-07T22:46:32;102217.44;;;14.55;91.04
71764;BME280;59602;52.142;5.408;2023-05-07T22:48:59;102208.34;;;14.50;91.36
71764;BME280;59602;52.142;5.408;2023-05-07T22:51:26;102215.00;;;14.49;91.15
71764;BME280;59602;52.142;5.408;2023-05-07T22:53:52;102215.38;;;14.48;91.22
71764;BME280;59602;52.142;5.408;2023-05-07T22:56:26;102209.88;;;14.48;91.53
71764;BME280;59602;52.142;5.408;2023-05-07T22:58:53;102210.25;;;14.46;91.24
71764;BME280;59602;52.142;5.408;2023-05-07T23:01:20;102214.53;;;14.44;91.25
71764;BME280;59602;52.142;5.408;2023-05-07T23:03:47;102209.03;;;14.40;91.03
71764;BME280;59602;52.142;5.408;2023-05-07T23:06:14;102211.28;;;14.35;90.57
71764;BME280;59602;52.142;5.408;2023-05-07T23:08:40;102213.59;;;14.32;90.86